Time;durP1;ratioP1;P1;durP2;ratioP2;P2;SDS_P1;SDS_P2;PMS_P1;PMS_P2;Temp;Humidity;BMP_temperature;BMP_pressure;BME280_temperature;BME280_humidity;BME280_pressure;Samples;Min_cycle;Max_cycle;Signal;HPM_P1;HPM_P2
2022/06/25 00:01:22;;;;;;;2.45;2.25;;;20.20;99.90;;;;;;5024917;28;20308;-35
2022/06/25 00:03:48;;;;;;;3.50;2.10;;;20.20;99.90;;;;;;5023764;28;20528;-36
2022/06/25 00:06:15;;;;;;;2.40;2.20;;;20.20;99.90;;;;;;5025476;28;20053;-35
2022/06/25 00:08:41;;;;;;;3.17;2.03;;;20.10;99.90;;;;;;5024492;28;20857;-39
2022/06/25 00:11:07;;;;;;;3.45;2.40;;;20.10;99.90;;;;;;5024911;28;20108;-35
2022/06/25 00:13:33;;;;;;;2.47;2.00;;;20.10;99.90;;;;;;5024979;28;20481;-35
2022/06/25 00:15:59;;;;;;;2.60;2.10;;;20.10;99.90;;;;;;5025413;28;20030;-35
2022/06/25 00:18:25;;;;;;;2.55;2.03;;;20.00;99.90;;;;;;5024852;28;20028;-37
2022/06/25 00:20:51;;;;;;;2.20;2.10;;;20.00;99.90;;;;;;5024918;28;20029;-36
2022/06/25 00:23:16;;;;;;;2.60;2.00;;;20.00;99.90;;;;;;5024864;28;20068;-35
2022/06/25 00:25:42;;;;;;;2.08;1.98;;;20.00;99.90;;;;;;5023799;28;20029;-35
2022/06/25 00:28:07;;;;;;;1.80;1.70;;;19.90;99.90;;;;;;5028323;28;20108;-36
2022/06/25 00:30:33;;;;;;;3.78;1.75;;;19.90;99.90;;;;;;5027455;28;20726;-37
2022/06/25 00:33:00;;;;;;;2.42;2.00;;;19.90;99.90;;;;;;5028412;28;20428;-35
2022/06/25 00:35:26;;;;;;;3.65;2.00;;;19.90;99.90;;;;;;5028499;28;20032;-34
2022/06/25 00:37:51;;;;;;;2.95;1.80;;;19.80;99.90;;;;;;5027375;28;20501;-36
2022/06/25 00:40:17;;;;;;;2.30;2.10;;;19.80;99.90;;;;;;5028125;28;20026;-35
2022/06/25 00:42:49;;;;;;;2.20;1.92;;;19.80;99.90;;;;;;5028675;28;20506;-35
2022/06/25 00:45:14;;;;;;;2.42;1.90;;;19.80;99.90;;;;;;5027346;28;20024;-35
2022/06/25 00:47:40;;;;;;;2.17;2.00;;;19.80;99.90;;;;;;5028313;28;20033;-35
2022/06/25 00:50:08;;;;;;;2.13;1.92;;;19.70;99.90;;;;;;5029223;28;20068;-36
2022/06/25 00:52:34;;;;;;;2.25;2.05;;;19.70;99.90;;;;;;5027078;28;20507;-36
2022/06/25 00:55:11;;;;;;;3.08;1.90;;;19.70;99.90;;;;;;5028712;28;20029;-36
2022/06/25 00:57:40;;;;;;;2.55;2.10;;;19.60;99.90;;;;;;5025818;28;20033;-35
2022/06/25 01:00:09;;;;;;;2.35;2.15;;;19.60;99.90;;;;;;5027589;28;20048;-36
2022/06/25 01:02:36;;;;;;;2.53;2.00;;;19.50;99.90;;;;;;5027352;28;20025;-35
2022/06/25 01:05:05;;;;;;;2.00;1.90;;;19.50;99.90;;;;;;5028329;28;20167;-36
2022/06/25 01:07:32;;;;;;;2.40;2.20;;;19.50;99.90;;;;;;5026373;28;20035;-36
2022/06/25 01:09:57;;;;;;;2.03;1.90;;;19.50;99.90;;;;;;5027884;28;20029;-35
2022/06/25 01:12:23;;;;;;;2.63;2.05;;;19.50;99.90;;;;;;5027458;28;20037;-36
2022/06/25 01:15:07;;;;;;;2.35;1.80;;;19.50;99.90;;;;;;5027646;28;20479;-37
2022/06/25 01:17:46;;;;;;;2.03;1.92;;;19.50;99.90;;;;;;5027314;28;20071;-36
2022/06/25 01:20:14;;;;;;;2.15;2.03;;;19.40;99.90;;;;;;5028114;28;20483;-37
2022/06/25 01:22:39;;;;;;;3.30;2.22;;;19.50;99.90;;;;;;5027439;28;20060;-35
2022/06/25 01:25:09;;;;;;;2.00;1.90;;;19.40;99.90;;;;;;5027858;28;20025;-36
2022/06/25 01:27:35;;;;;;;2.20;2.00;;;19.40;99.90;;;;;;5026126;28;20540;-34
2022/06/25 01:30:02;;;;;;;2.88;2.00;;;19.40;99.90;;;;;;5027406;28;20480;-35
2022/06/25 01:32:28;;;;;;;3.08;1.92;;;19.40;99.90;;;;;;5027357;28;20033;-36
2022/06/25 01:34:54;;;;;;;2.13;1.98;;;19.40;99.90;;;;;;5026673;28;20488;-33
2022/06/25 01:37:21;;;;;;;2.72;2.00;;;19.40;99.90;;;;;;5027216;28;20332;-35
2022/06/25 01:39:50;;;;;;;2.53;2.30;;;19.40;99.90;;;;;;5027173;28;20060;-35
2022/06/25 01:45:00;;;;;;;1.98;1.88;;;19.40;99.90;;;;;;5027706;28;20032;-44
2022/06/25 01:47:25;;;;;;;2.15;1.95;;;19.40;99.90;;;;;;5026310;28;20025;-34
2022/06/25 01:49:51;;;;;;;2.60;1.80;;;19.40;99.90;;;;;;5027096;28;20032;-34
2022/06/25 01:52:16;;;;;;;4.50;2.90;;;19.30;99.90;;;;;;5026877;28;20033;-35
2022/06/25 01:54:42;;;;;;;1.92;1.83;;;19.30;99.90;;;;;;5027246;28;20029;-35
2022/06/25 01:57:08;;;;;;;2.58;2.00;;;19.30;99.90;;;;;;5026711;28;20041;-36
2022/06/25 01:59:33;;;;;;;2.75;2.20;;;19.30;99.90;;;;;;5026550;28;20044;-35
2022/06/25 02:01:59;;;;;;;3.33;2.22;;;19.30;99.90;;;;;;5026958;28;20017;-35
2022/06/25 02:04:24;;;;;;;2.20;1.98;;;19.20;99.90;;;;;;5026530;28;20025;-36
2022/06/25 02:06:50;;;;;;;2.25;2.05;;;19.20;99.90;;;;;;5027530;28;20496;-35
2022/06/25 02:09:15;;;;;;;2.28;2.08;;;19.20;99.90;;;;;;5025876;28;20116;-35
2022/06/25 02:11:41;;;;;;;3.10;2.08;;;19.20;99.90;;;;;;5025714;28;20033;-37
2022/06/25 02:14:07;;;;;;;2.72;2.20;;;19.20;99.90;;;;;;5026274;28;20109;-36
2022/06/25 02:16:32;;;;;;;2.10;1.90;;;19.20;99.90;;;;;;5025135;28;20036;-50
2022/06/25 02:18:58;;;;;;;1.92;1.70;;;19.10;99.90;;;;;;5026346;28;20053;-35
2022/06/25 02:21:23;;;;;;;1.83;1.73;;;19.10;99.90;;;;;;5026411;28;20112;-34
2022/06/25 02:23:49;;;;;;;1.83;1.70;;;19.10;99.90;;;;;;5025776;28;20037;-36
2022/06/25 02:26:15;;;;;;;1.60;1.50;;;19.10;99.90;;;;;;5026507;28;20057;-36
2022/06/25 02:28:41;;;;;;;2.97;2.10;;;19.10;99.90;;;;;;5026908;28;20022;-34
2022/06/25 02:31:06;;;;;;;2.88;1.90;;;19.10;99.90;;;;;;5026161;28;20048;-36
2022/06/25 02:33:32;;;;;;;2.72;1.90;;;19.10;99.90;;;;;;5025572;28;20037;-41
2022/06/25 02:35:57;;;;;;;1.80;1.63;;;19.10;99.90;;;;;;5026784;28;20107;-35
2022/06/25 02:38:23;;;;;;;1.95;1.45;;;19.10;99.90;;;;;;5025379;28;20389;-35
2022/06/25 02:40:48;;;;;;;2.15;1.95;;;19.10;99.90;;;;;;5026759;28;20370;-35
2022/06/25 02:43:14;;;;;;;3.15;1.88;;;19.00;99.90;;;;;;5027129;28;20457;-35
2022/06/25 02:45:39;;;;;;;2.30;1.60;;;19.00;99.90;;;;;;5025765;28;20021;-36
2022/06/25 02:48:05;;;;;;;2.47;2.00;;;19.00;99.90;;;;;;5027028;28;20060;-34
2022/06/25 02:50:31;;;;;;;1.92;1.70;;;19.00;99.90;;;;;;5025649;28;20522;-35
2022/06/25 02:52:58;;;;;;;2.22;1.90;;;18.90;99.90;;;;;;5025749;28;20068;-35
2022/06/25 03:00:52;;;;;;;2.05;1.90;;;18.80;99.90;;;;;;5026617;28;20511;-35
2022/06/25 03:03:17;;;;;;;2.03;1.83;;;18.80;99.90;;;;;;5026406;28;20029;-36
2022/06/25 03:05:43;;;;;;;2.42;1.92;;;18.80;99.90;;;;;;5024996;28;20566;-36
2022/06/25 03:08:08;;;;;;;2.20;1.50;;;18.80;99.90;;;;;;5026554;28;20029;-36
2022/06/25 03:10:34;;;;;;;2.22;2.03;;;18.70;99.90;;;;;;5024935;28;20025;-35
2022/06/25 03:12:59;;;;;;;2.25;1.80;;;18.70;99.90;;;;;;5025436;28;20041;-36
2022/06/25 03:15:25;;;;;;;2.20;1.80;;;18.70;99.90;;;;;;5025629;28;20018;-34
2022/06/25 03:17:50;;;;;;;2.50;1.92;;;18.70;99.90;;;;;;5026280;28;20017;-35
2022/06/25 03:20:16;;;;;;;1.98;1.60;;;18.70;99.90;;;;;;5024713;28;20381;-35
2022/06/25 03:22:41;;;;;;;2.45;1.70;;;18.70;99.90;;;;;;5024836;28;20021;-36
2022/06/25 03:25:08;;;;;;;1.70;1.60;;;18.70;99.90;;;;;;5025335;28;20057;-35
2022/06/25 03:27:34;;;;;;;3.13;1.85;;;18.70;99.90;;;;;;5024232;28;20417;-35
2022/06/25 03:29:59;;;;;;;1.83;1.70;;;18.70;99.90;;;;;;5025455;28;20524;-36
2022/06/25 03:32:25;;;;;;;2.65;1.80;;;18.80;99.90;;;;;;5025193;28;20033;-35
2022/06/25 03:34:51;;;;;;;1.92;1.75;;;18.70;99.90;;;;;;5024524;28;20385;-35
2022/06/25 03:37:16;;;;;;;3.45;1.90;;;18.70;99.90;;;;;;5024786;28;20029;-35
2022/06/25 03:39:42;;;;;;;2.42;2.08;;;18.70;99.90;;;;;;5026143;28;20069;-34
2022/06/25 03:42:07;;;;;;;4.20;2.20;;;18.80;99.90;;;;;;5024510;28;20064;-34
2022/06/25 03:44:33;;;;;;;2.08;1.88;;;18.70;99.90;;;;;;5025389;28;20404;-35
2022/06/25 03:46:59;;;;;;;1.92;1.83;;;18.70;99.90;;;;;;5025142;28;20072;-37
2022/06/25 03:49:24;;;;;;;2.70;1.92;;;18.70;99.90;;;;;;5024286;28;20032;-34
2022/06/25 03:51:50;;;;;;;2.35;2.15;;;18.70;99.90;;;;;;5025647;28;20021;-36
2022/06/25 03:54:16;;;;;;;2.97;1.80;;;18.70;99.90;;;;;;5025361;28;20106;-37
2022/06/25 03:56:41;;;;;;;2.47;2.22;;;18.70;99.90;;;;;;5024145;28;20017;-35
2022/06/25 03:59:07;;;;;;;1.90;1.80;;;18.70;99.90;;;;;;5025723;28;20235;-36
2022/06/25 04:01:33;;;;;;;3.33;1.80;;;18.70;99.90;;;;;;5023867;28;20022;-34
2022/06/25 04:03:59;;;;;;;1.90;1.80;;;18.70;99.90;;;;;;5028903;28;20052;-37
2022/06/25 04:06:25;;;;;;;4.32;1.88;;;18.70;99.90;;;;;;5028755;28;20028;-35
2022/06/25 04:08:50;;;;;;;3.58;1.92;;;18.70;99.90;;;;;;5029367;28;20026;-35
2022/06/25 04:11:16;;;;;;;1.90;1.70;;;18.70;99.90;;;;;;5029363;28;20037;-35
2022/06/25 04:13:42;;;;;;;2.22;2.00;;;18.70;99.90;;;;;;5028713;28;20048;-34
2022/06/25 04:16:08;;;;;;;2.00;1.50;;;18.70;99.90;;;;;;5029153;28;20488;-34
2022/06/25 04:18:33;;;;;;;2.42;1.85;;;18.60;99.90;;;;;;5028450;28;20029;-34
2022/06/25 04:20:59;;;;;;;2.67;1.88;;;18.60;99.90;;;;;;5029957;28;20408;-34
2022/06/25 04:23:25;;;;;;;2.17;1.98;;;18.60;99.90;;;;;;5027791;28;20384;-35
2022/06/25 04:25:51;;;;;;;3.13;2.05;;;18.60;99.90;;;;;;5029022;28;20120;-35
2022/06/25 04:31:00;;;;;;;2.55;1.90;;;18.60;99.90;;;;;;5027830;28;20381;-36
2022/06/25 04:33:26;;;;;;;2.00;1.80;;;18.60;99.90;;;;;;5027171;28;20030;-35
2022/06/25 04:35:51;;;;;;;2.00;1.80;;;18.70;99.90;;;;;;5028492;28;20025;-34
2022/06/25 04:38:17;;;;;;;2.45;2.10;;;18.70;99.90;;;;;;5026982;28;20025;-35
2022/06/25 04:40:42;;;;;;;2.28;1.85;;;18.70;99.90;;;;;;5029200;28;20542;-35
2022/06/25 04:43:08;;;;;;;2.28;1.90;;;18.70;99.90;;;;;;5028689;28;20036;-35
2022/06/25 04:45:34;;;;;;;2.17;1.98;;;18.70;99.90;;;;;;5027932;28;20037;-35
2022/06/25 04:48:00;;;;;;;2.45;1.90;;;18.70;99.90;;;;;;5028599;28;20013;-36
2022/06/25 04:50:26;;;;;;;2.30;1.60;;;18.70;99.90;;;;;;5028422;28;20025;-35
2022/06/25 04:52:52;;;;;;;2.88;2.10;;;18.80;99.90;;;;;;5027835;28;20146;-35
2022/06/25 04:55:17;;;;;;;2.35;2.10;;;18.80;99.90;;;;;;5028504;28;20099;-37
2022/06/25 04:57:43;;;;;;;2.53;1.80;;;18.90;99.90;;;;;;5028057;28;20443;-34
2022/06/25 05:00:11;;;;;;;2.00;1.90;;;19.00;99.90;;;;;;5027591;28;20109;-34
2022/06/25 05:02:37;;;;;;;2.65;2.10;;;19.10;99.90;;;;;;5028097;28;20029;-34
2022/06/25 05:05:04;;;;;;;2.03;1.83;;;19.20;99.90;;;;;;5027380;28;20688;-35
2022/06/25 05:07:29;;;;;;;2.58;2.35;;;19.30;99.90;;;;;;5027996;28;20150;-35
2022/06/25 05:09:55;;;;;;;2.38;2.17;;;19.40;99.90;;;;;;5028591;28;20018;-35
2022/06/25 05:15:05;;;;;;;2.22;2.03;;;19.50;99.90;;;;;;5026236;28;20499;-35
2022/06/25 05:17:31;;;;;;;3.50;2.60;;;19.60;99.90;;;;;;5028146;28;20025;-36
2022/06/25 05:19:56;;;;;;;2.53;2.03;;;19.70;99.90;;;;;;5027457;28;20037;-35
2022/06/25 05:22:23;;;;;;;2.92;2.38;;;19.80;99.90;;;;;;5028022;28;20032;-35
2022/06/25 05:24:49;;;;;;;2.60;2.40;;;19.70;99.90;;;;;;5028220;28;20076;-34
2022/06/25 05:27:14;;;;;;;2.70;2.50;;;19.70;99.90;;;;;;5026696;28;20017;-34
2022/06/25 05:29:40;;;;;;;2.92;2.50;;;19.70;99.90;;;;;;5028052;28;20018;-35
2022/06/25 05:32:06;;;;;;;3.10;2.80;;;19.80;99.90;;;;;;5027797;28;20076;-35
2022/06/25 05:34:31;;;;;;;4.18;3.17;;;19.80;99.90;;;;;;5026386;28;20015;-35
2022/06/25 05:36:57;;;;;;;4.38;3.10;;;19.80;99.90;;;;;;5027842;28;20148;-34
2022/06/25 05:39:22;;;;;;;2.88;2.67;;;19.90;99.90;;;;;;5026797;28;20029;-36
2022/06/25 05:41:48;;;;;;;2.50;2.30;;;19.90;99.90;;;;;;5025890;28;20029;-35
2022/06/25 05:44:13;;;;;;;2.58;2.30;;;20.00;99.90;;;;;;5027040;28;20029;-36
2022/06/25 05:46:39;;;;;;;2.72;2.53;;;20.00;99.90;;;;;;5026993;28;20025;-35
2022/06/25 05:49:05;;;;;;;4.65;2.78;;;20.00;99.90;;;;;;5027363;28;20384;-35
2022/06/25 05:51:30;;;;;;;2.75;2.55;;;20.00;99.90;;;;;;5026698;28;20432;-36
2022/06/25 05:53:56;;;;;;;3.95;2.42;;;20.00;99.90;;;;;;5028384;28;20036;-36
2022/06/25 05:56:21;;;;;;;2.78;2.55;;;20.00;99.90;;;;;;5026776;28;20014;-35
2022/06/25 05:58:47;;;;;;;2.38;2.17;;;20.10;99.90;;;;;;5027259;28;20071;-35
2022/06/25 06:01:13;;;;;;;6.20;3.17;;;20.10;99.90;;;;;;5026780;28;20021;-35
2022/06/25 06:03:38;;;;;;;3.67;2.40;;;20.10;99.90;;;;;;5027316;28;20021;-34
2022/06/25 06:06:04;;;;;;;2.40;2.20;;;20.10;99.90;;;;;;5027509;28;20031;-35
2022/06/25 06:08:30;;;;;;;3.00;2.38;;;20.10;99.90;;;;;;5026818;28;20033;-35
2022/06/25 06:10:55;;;;;;;2.80;2.60;;;20.10;99.90;;;;;;5027608;28;20028;-36
2022/06/25 06:13:21;;;;;;;4.32;2.40;;;20.10;99.90;;;;;;5027137;28;20384;-35
2022/06/25 06:15:46;;;;;;;2.92;2.20;;;20.10;99.90;;;;;;5026266;28;20108;-35
2022/06/25 06:18:12;;;;;;;4.43;2.30;;;20.10;99.90;;;;;;5027628;28;20101;-35
2022/06/25 06:20:38;;;;;;;4.80;2.10;;;20.10;99.90;;;;;;5026301;28;20105;-36
2022/06/25 06:23:03;;;;;;;2.30;2.10;;;20.10;99.90;;;;;;5026469;28;20051;-36
2022/06/25 06:25:29;;;;;;;2.33;2.13;;;20.10;99.90;;;;;;5026185;28;20057;-35
2022/06/25 06:27:55;;;;;;;2.50;2.30;;;20.20;99.90;;;;;;5026225;28;20033;-36
2022/06/25 06:30:22;;;;;;;2.38;2.15;;;20.20;99.90;;;;;;5006773;28;20127;-35
2022/06/25 06:32:47;;;;;;;2.58;2.17;;;20.20;99.90;;;;;;5020829;28;20060;-35
2022/06/25 06:35:13;;;;;;;3.20;2.70;;;20.30;99.90;;;;;;5024682;28;20033;-37
2022/06/25 06:37:39;;;;;;;3.70;3.03;;;20.30;99.90;;;;;;5013593;28;20037;-35
2022/06/25 06:40:06;;;;;;;2.60;2.40;;;20.30;99.90;;;;;;5011402;28;20018;-35
2022/06/25 06:42:31;;;;;;;3.88;2.75;;;20.30;99.90;;;;;;5011085;28;20095;-35
2022/06/25 06:44:57;;;;;;;3.20;2.30;;;20.40;99.90;;;;;;5013641;28;20450;-35
2022/06/25 06:47:22;;;;;;;2.55;2.15;;;20.40;99.90;;;;;;5005819;28;20018;-36
2022/06/25 06:49:48;;;;;;;1.98;1.77;;;20.50;99.90;;;;;;5014330;28;20049;-36
2022/06/25 06:52:14;;;;;;;2.30;2.00;;;20.60;99.90;;;;;;5005379;28;20468;-35
2022/06/25 06:54:40;;;;;;;2.38;2.17;;;20.70;99.90;;;;;;5016172;28;20022;-34
2022/06/25 06:57:06;;;;;;;2.10;1.90;;;20.70;99.90;;;;;;5006449;28;20103;-35
2022/06/25 06:59:31;;;;;;;3.42;1.90;;;20.80;99.90;;;;;;5015519;28;20445;-35
2022/06/25 07:01:58;;;;;;;1.77;1.60;;;20.80;99.90;;;;;;5006808;28;20050;-33
2022/06/25 07:04:24;;;;;;;2.83;2.35;;;20.90;99.90;;;;;;5017375;28;20037;-35
2022/06/25 07:06:49;;;;;;;2.83;1.90;;;20.90;99.90;;;;;;5006328;28;20033;-35
2022/06/25 07:09:15;;;;;;;3.10;2.20;;;20.80;99.90;;;;;;5017455;28;20137;-34
2022/06/25 07:11:40;;;;;;;2.10;1.90;;;20.80;99.90;;;;;;5005637;28;20037;-36
2022/06/25 07:14:06;;;;;;;2.55;2.08;;;20.70;99.90;;;;;;5015016;28;20099;-36
2022/06/25 07:16:33;;;;;;;2.65;1.75;;;20.70;99.90;;;;;;5008531;28;20498;-36
2022/06/25 07:18:59;;;;;;;1.95;1.73;;;20.70;99.90;;;;;;5012540;28;20018;-36
2022/06/25 07:21:26;;;;;;;2.00;1.77;;;20.70;99.90;;;;;;5010524;28;20037;-35
2022/06/25 07:23:52;;;;;;;3.05;1.90;;;20.80;99.90;;;;;;5010828;28;20138;-36
2022/06/25 07:26:19;;;;;;;3.00;1.67;;;20.80;99.90;;;;;;5012485;28;20029;-35
2022/06/25 07:28:44;;;;;;;2.22;1.60;;;20.90;99.90;;;;;;5006654;28;20393;-35
2022/06/25 07:31:10;;;;;;;2.35;1.50;;;21.00;99.90;;;;;;5015242;28;20061;-36
2022/06/25 07:33:36;;;;;;;4.18;1.70;;;21.00;99.90;;;;;;5021835;28;20037;-35
2022/06/25 07:36:01;;;;;;;2.25;1.40;;;21.10;99.90;;;;;;5015150;28;20439;-35
2022/06/25 07:38:27;;;;;;;1.63;1.35;;;21.20;99.90;;;;;;5005077;28;20103;-39
2022/06/25 07:40:53;;;;;;;1.67;1.40;;;21.30;99.90;;;;;;5016910;28;20746;-36
2022/06/25 07:43:18;;;;;;;1.48;1.35;;;21.40;99.90;;;;;;5014052;28;20029;-37
2022/06/25 07:45:44;;;;;;;2.28;1.35;;;21.50;99.90;;;;;;5013387;28;20365;-35
2022/06/25 07:48:10;;;;;;;2.08;1.45;;;21.60;99.90;;;;;;5024856;28;20103;-36
2022/06/25 07:53:19;;;;;;;1.50;1.30;;;21.70;99.90;;;;;;5021635;28;20095;-35
2022/06/25 07:55:45;;;;;;;2.05;1.52;;;21.70;99.90;;;;;;5010828;28;20022;-36
2022/06/25 07:58:12;;;;;;;2.28;1.60;;;21.70;99.90;;;;;;5023993;28;20600;-36
2022/06/25 08:00:38;;;;;;;1.73;1.30;;;21.70;99.90;;;;;;5014795;28;20033;-36
2022/06/25 08:03:04;;;;;;;1.67;1.55;;;21.70;99.90;;;;;;5022365;28;20129;-35
2022/06/25 08:05:29;;;;;;;2.42;1.80;;;21.70;99.90;;;;;;5017982;28;20108;-35
2022/06/25 08:07:55;;;;;;;1.40;1.30;;;21.70;99.90;;;;;;5018871;28;20036;-38
2022/06/25 08:10:21;;;;;;;2.22;1.23;;;21.80;99.90;;;;;;5023038;28;20496;-38
2022/06/25 08:12:47;;;;;;;2.72;1.35;;;21.90;99.90;;;;;;5013916;28;20052;-37
2022/06/25 08:15:14;;;;;;;1.55;0.90;;;21.90;99.90;;;;;;5006572;28;20010;-36
2022/06/25 08:17:39;;;;;;;1.38;1.00;;;22.00;99.90;;;;;;5016452;28;20025;-36
2022/06/25 08:20:06;;;;;;;2.97;1.10;;;22.00;99.90;;;;;;5018321;28;20071;-36
2022/06/25 08:22:31;;;;;;;2.22;1.20;;;22.10;99.90;;;;;;5011917;28;20029;-35
2022/06/25 08:24:57;;;;;;;1.10;1.00;;;22.10;99.90;;;;;;5025831;28;20037;-35
2022/06/25 08:27:22;;;;;;;1.98;1.05;;;22.10;99.90;;;;;;5013345;28;20485;-35
2022/06/25 08:29:49;;;;;;;1.10;1.00;;;22.20;99.90;;;;;;5024634;28;20037;-36
2022/06/25 08:32:14;;;;;;;1.35;0.85;;;22.30;99.90;;;;;;5012927;28;20033;-35
2022/06/25 08:34:40;;;;;;;1.23;0.90;;;22.40;99.90;;;;;;5015689;28;20033;-36
2022/06/25 08:37:06;;;;;;;1.75;0.90;;;22.50;99.90;;;;;;5015951;28;20022;-35
2022/06/25 08:39:32;;;;;;;1.05;0.73;;;22.60;99.90;;;;;;5019808;28;20376;-35
2022/06/25 08:42:01;;;;;;;0.90;0.75;;;22.70;99.90;;;;;;5020950;28;20068;-35
2022/06/25 08:44:32;;;;;;;1.23;0.80;;;22.80;99.90;;;;;;5007940;28;20030;-36
2022/06/25 08:46:58;;;;;;;1.00;0.90;;;22.90;99.90;;;;;;5013143;28;20285;-35
2022/06/25 08:49:26;;;;;;;1.08;0.80;;;23.10;99.90;;;;;;5012825;28;20655;-34
2022/06/25 08:51:53;;;;;;;1.33;0.95;;;23.20;99.90;;;;;;5013336;28;20029;-34
2022/06/25 08:54:20;;;;;;;0.93;0.90;;;23.30;99.90;;;;;;5016138;28;20040;-35
2022/06/25 08:56:46;;;;;;;1.00;0.70;;;23.30;99.90;;;;;;5015865;28;20025;-35
2022/06/25 08:59:12;;;;;;;1.27;0.93;;;23.30;99.90;;;;;;5018554;28;20056;-38
2022/06/25 09:01:38;;;;;;;1.05;0.98;;;23.30;99.90;;;;;;5026936;28;20112;-36
2022/06/25 09:04:04;;;;;;;0.70;0.70;;;23.30;99.90;;;;;;5015722;28;20136;-37
2022/06/25 09:06:30;;;;;;;1.88;0.70;;;23.30;99.90;;;;;;5025657;28;20045;-36
2022/06/25 09:09:16;;;;;;;1.05;0.60;;;23.40;99.90;;;;;;5016801;28;20072;-36
2022/06/25 09:11:53;;;;;;;0.77;0.70;;;23.40;99.90;;;;;;5025688;28;20122;-35
2022/06/25 09:14:28;;;;;;;1.58;0.90;;;23.40;99.90;;;;;;5016596;28;20140;-36
2022/06/25 09:17:04;;;;;;;1.65;0.93;;;23.40;99.90;;;;;;5027042;28;20496;-37
2022/06/25 09:19:43;;;;;;;1.00;0.73;;;23.30;99.90;;;;;;5015510;28;20078;-36
2022/06/25 09:22:12;;;;;;;0.82;0.82;;;23.20;99.90;;;;;;5026472;28;20533;-35
2022/06/25 09:24:49;;;;;;;1.42;0.77;;;23.20;99.90;;;;;;5016521;28;20017;-37
2022/06/25 09:27:34;;;;;;;1.25;1.13;;;23.10;99.90;;;;;;5025250;28;20057;-36
2022/06/25 09:30:09;;;;;;;2.25;1.17;;;23.00;99.90;;;;;;5005728;28;20030;-35
2022/06/25 09:32:48;;;;;;;1.25;1.00;;;22.90;99.90;;;;;;5006281;28;20030;-35
2022/06/25 09:35:30;;;;;;;0.90;0.80;;;22.90;99.90;;;;;;5020495;28;20030;-35
2022/06/25 09:38:08;;;;;;;1.02;0.80;;;22.80;99.90;;;;;;5027579;28;20034;-37
2022/06/25 09:40:35;;;;;;;0.70;0.70;;;22.70;99.90;;;;;;5016587;28;20045;-35
2022/06/25 09:43:14;;;;;;;0.70;0.60;;;22.60;99.90;;;;;;5026869;28;20108;-35
2022/06/25 09:45:42;;;;;;;1.58;0.70;;;22.60;99.90;;;;;;5016335;28;20162;-36
2022/06/25 09:48:19;;;;;;;2.80;1.00;;;22.60;99.90;;;;;;5026472;28;20477;-36
2022/06/25 09:51:03;;;;;;;1.20;0.80;;;22.70;99.90;;;;;;5007241;28;20022;-36
2022/06/25 09:53:29;;;;;;;1.33;1.15;;;22.70;99.90;;;;;;5010822;28;20025;-34
2022/06/25 09:55:54;;;;;;;1.02;0.88;;;22.70;99.90;;;;;;5026732;28;20028;-36
2022/06/25 09:58:21;;;;;;;1.25;0.90;;;22.70;99.90;;;;;;5026639;28;20028;-36
2022/06/25 10:00:47;;;;;;;1.95;0.82;;;22.70;99.90;;;;;;5025061;28;20021;-35
2022/06/25 10:03:13;;;;;;;0.80;0.80;;;22.70;99.90;;;;;;5027479;28;20056;-35
2022/06/25 10:05:41;;;;;;;1.58;0.98;;;22.70;99.90;;;;;;5019879;28;20058;-34
2022/06/25 10:08:10;;;;;;;2.25;0.93;;;22.80;99.90;;;;;;5007025;28;20036;-36
2022/06/25 10:10:41;;;;;;;2.67;1.88;;;22.90;99.90;;;;;;5018623;28;20033;-36
2022/06/25 10:13:07;;;;;;;1.30;0.98;;;22.90;99.90;;;;;;5007088;28;20044;-36
2022/06/25 10:15:34;;;;;;;1.17;0.82;;;22.90;99.90;;;;;;5017238;28;20017;-35
2022/06/25 10:18:01;;;;;;;1.23;0.95;;;23.10;99.90;;;;;;5006809;28;20033;-37
2022/06/25 10:20:28;;;;;;;1.50;0.80;;;23.20;99.90;;;;;;5016050;28;20033;-38
2022/06/25 10:22:54;;;;;;;1.00;0.82;;;23.30;99.90;;;;;;5008231;28;20373;-36
2022/06/25 10:25:23;;;;;;;0.90;0.90;;;23.40;99.90;;;;;;5014191;28;20034;-37
2022/06/25 10:27:51;;;;;;;1.60;1.10;;;23.40;99.90;;;;;;5024296;28;20034;-36
2022/06/25 10:30:46;;;;;;;0.93;0.90;;;23.40;99.90;;;;;;5020177;28;20123;-36
2022/06/25 10:33:13;;;;;;;1.05;0.80;;;23.40;99.90;;;;;;5023613;28;20064;-36
2022/06/25 10:35:40;;;;;;;1.65;1.20;;;23.40;99.90;;;;;;5016399;28;20032;-36
2022/06/25 10:38:13;;;;;;;2.10;0.90;;;23.40;99.90;;;;;;5021885;28;20051;-37
2022/06/25 10:43:50;;;;;;;1.45;1.17;;;23.30;99.90;;;;;;5025047;28;20087;-34
2022/06/25 10:46:36;;;;;;;2.25;1.08;;;23.30;99.90;;;;;;5015338;28;20029;-37
2022/06/25 10:49:22;;;;;;;1.13;1.00;;;23.20;99.90;;;;;;5006500;28;20477;-37
2022/06/25 10:51:52;;;;;;;0.98;0.88;;;23.20;99.90;;;;;;5021560;28;20049;-36
2022/06/25 10:54:23;;;;;;;0.98;0.95;;;23.10;99.90;;;;;;5024760;28;20037;-35
2022/06/25 10:56:54;;;;;;;0.75;0.75;;;23.10;99.90;;;;;;5024397;28;20437;-36
2022/06/25 10:59:34;;;;;;;1.10;1.00;;;23.10;99.90;;;;;;5006309;28;20446;-35
2022/06/25 11:02:03;;;;;;;1.50;1.20;;;23.00;99.90;;;;;;5022238;28;20087;-36
2022/06/25 11:04:30;;;;;;;1.00;1.00;;;23.00;99.90;;;;;;5025389;28;20075;-35
2022/06/25 11:07:17;;;;;;;1.67;1.40;;;22.90;99.90;;;;;;5025864;28;20068;-37
2022/06/25 11:09:56;;;;;;;1.30;1.20;;;22.90;99.90;;;;;;5005894;28;20329;-35
2022/06/25 11:12:23;;;;;;;1.55;1.30;;;22.90;99.90;;;;;;5016458;28;20033;-35
2022/06/25 11:14:58;;;;;;;1.20;1.10;;;22.90;99.90;;;;;;5022402;28;20112;-35
2022/06/25 11:17:24;;;;;;;1.13;0.90;;;23.00;99.90;;;;;;5020675;28;20038;-37
2022/06/25 11:19:50;;;;;;;2.13;1.05;;;23.00;99.90;;;;;;5024592;28;20106;-36
2022/06/25 11:22:15;;;;;;;0.80;0.80;;;23.10;99.90;;;;;;5025094;28;20017;-36
2022/06/25 11:28:47;;;;;;;1.45;1.35;;;23.20;99.90;;;;;;5023605;28;20057;-35
2022/06/25 11:30:14;;;;;;;2.85;1.33;;;23.40;99.90;;;;;;5021514;28;20052;-36
2022/06/25 11:32:44;;;;;;;1.73;1.02;;;23.50;99.90;;;;;;5018249;28;20120;-36
2022/06/25 11:35:09;;;;;;;1.88;1.10;;;23.70;99.90;;;;;;5024582;28;20388;-35
2022/06/25 11:37:35;;;;;;;1.20;0.88;;;23.80;99.90;;;;;;5021532;28;20018;-35
2022/06/25 11:40:01;;;;;;;0.95;0.95;;;23.90;99.90;;;;;;5020577;28;20426;-35
2022/06/25 11:42:26;;;;;;;1.02;0.85;;;24.10;99.90;;;;;;5019235;28;20128;-36
2022/06/25 11:44:54;;;;;;;1.13;0.90;;;24.30;99.90;;;;;;5020905;28;20032;-36
2022/06/25 11:47:22;;;;;;;1.95;1.23;;;24.50;99.90;;;;;;5019585;28;20014;-38
2022/06/25 11:49:48;;;;;;;0.95;0.90;;;24.60;99.90;;;;;;5021023;28;20035;-36
2022/06/25 11:52:15;;;;;;;1.55;1.05;;;24.60;99.90;;;;;;5020791;28;20045;-36
2022/06/25 11:54:43;;;;;;;1.55;1.25;;;24.70;99.90;;;;;;5019905;28;20535;-35
2022/06/25 11:57:15;;;;;;;1.80;1.20;;;24.70;99.90;;;;;;5020548;28;20029;-34
2022/06/25 11:59:41;;;;;;;2.60;1.27;;;24.70;99.90;;;;;;5005735;28;20054;-34
2022/06/25 12:02:08;;;;;;;1.52;1.00;;;24.80;99.90;;;;;;5022887;28;20026;-36
2022/06/25 12:04:52;;;;;;;0.95;0.88;;;24.80;99.90;;;;;;5024083;28;20022;-37
2022/06/25 12:07:19;;;;;;;1.40;0.93;;;24.90;99.90;;;;;;5025277;28;20083;-36
2022/06/25 12:09:45;;;;;;;1.38;1.00;;;25.00;99.90;;;;;;5024751;28;20057;-37
2022/06/25 12:12:11;;;;;;;1.42;1.10;;;25.00;99.90;;;;;;5011730;28;20535;-37
2022/06/25 12:14:37;;;;;;;1.17;1.10;;;25.00;99.90;;;;;;5016918;28;20075;-37
2022/06/25 12:17:05;;;;;;;1.85;1.02;;;25.00;99.90;;;;;;5005903;28;20018;-37
2022/06/25 12:19:48;;;;;;;2.05;0.98;;;25.10;99.90;;;;;;5016362;28;20026;-35
2022/06/25 12:22:27;;;;;;;1.25;0.80;;;25.10;99.90;;;;;;5004675;28;20037;-34
2022/06/25 12:24:59;;;;;;;0.90;0.80;;;25.20;99.70;;;;;;5026251;28;20052;-37
2022/06/25 12:27:25;;;;;;;1.40;0.83;;;25.20;99.30;;;;;;5028264;28;20037;-36
2022/06/25 12:29:53;;;;;;;1.40;0.90;;;25.20;99.40;;;;;;5027601;28;20272;-36
2022/06/25 12:32:19;;;;;;;1.45;0.95;;;25.40;99.50;;;;;;5027716;28;20549;-37
2022/06/25 12:34:50;;;;;;;1.75;1.00;;;25.40;99.30;;;;;;5027439;28;20029;-37
2022/06/25 12:37:31;;;;;;;1.50;1.17;;;25.50;99.30;;;;;;5027589;28;20531;-36
2022/06/25 12:39:58;;;;;;;1.77;1.10;;;25.50;99.10;;;;;;5028592;28;20125;-36
2022/06/25 12:42:24;;;;;;;1.40;1.20;;;25.50;99.10;;;;;;5027343;28;20385;-35
2022/06/25 12:44:50;;;;;;;1.10;1.00;;;25.50;99.30;;;;;;5028542;28;20021;-36
2022/06/25 12:47:17;;;;;;;2.15;1.02;;;25.50;99.20;;;;;;5028141;28;20478;-36
2022/06/25 12:49:47;;;;;;;1.80;1.45;;;25.60;99.00;;;;;;5027410;28;20025;-35
2022/06/25 12:52:23;;;;;;;1.20;1.05;;;25.70;99.10;;;;;;5028525;28;20068;-36
2022/06/25 12:54:52;;;;;;;2.15;1.40;;;25.70;99.00;;;;;;5028171;28;20036;-38
2022/06/25 12:57:37;;;;;;;1.20;1.10;;;25.80;99.00;;;;;;5027392;28;20026;-35
2022/06/25 13:00:11;;;;;;;1.45;0.90;;;25.90;99.20;;;;;;5028214;28;20045;-37
2022/06/25 13:02:38;;;;;;;0.95;0.82;;;25.80;99.00;;;;;;5028691;28;20275;-35
2022/06/25 13:05:03;;;;;;;1.20;0.90;;;25.80;98.60;;;;;;5027651;28;20041;-36
2022/06/25 13:07:29;;;;;;;0.80;0.80;;;25.80;98.30;;;;;;5027781;28;20496;-37
2022/06/25 13:09:55;;;;;;;0.70;0.70;;;25.70;98.40;;;;;;5027753;28;20037;-36
2022/06/25 13:12:20;;;;;;;0.75;0.75;;;25.70;98.30;;;;;;5027020;28;20083;-38